SKCG/CTG METAR and TAF weather

Enter ICAO airport designator
Station Type Date Time Source
SKCG METAR 2024/04/17 19:00 UTC NOAA

SKCG 171900Z 34016KT 9999 FEW018 32/25 Q1007


Station Type Date Time Source
SKCG Decoded METAR 2024/04/17 19:00 UTC NOAA

Cartagena / Rafael Nunez, Colombia (SKCG) 10-27N 075-31W 12M
Apr 17, 2024 - 03:00 PM EDT / 2024.04.17 1900 UTC
Wind: from the NNW (340 degrees) at 18 MPH (16 KT):0
Visibility: greater than 7 mile(s):0
Sky conditions: mostly clear
Temperature: 89 F (32 C)
Heat index: 100.6 F (38.1 C):1
Dew Point: 77 F (25 C)
Relative Humidity: 66%
Pressure (altimeter): 29.74 in. Hg (1007 hPa)
ob: SKCG 171900Z 34016KT 9999 FEW018 32/25 Q1007
cycle: 19

Station Type Date Time Source
SKCG TAF 2024/04/17 18:30 UTC NOAA